AAL202 KCLT-KMEM
Flight info
| Callsign | AAL202 |
|---|---|
| Flight time | N/A |
| Altitude | 36000 |
| Route | BOBZY5 BNA BLUZZ5 |
| Aircraft | B736/M-SDE2E3FGHIRWXY/LB1 |
Departure
| Time | 2026-05-06 19:06 |
|---|---|
| Airport | Charlotte Douglas International Airport (KCLT) |
Arrival
| Time | N/A |
|---|---|
| Airport | Memphis International Airport (KMEM) |
| Time | Latitude | Longitude | Altitude | Speed | Heading |
|---|---|---|---|---|---|
| 2026-05-06 18:44 | 35.21896 | -80.94195 | 0 ft | 0 kts | 252° |
| 2026-05-06 18:52 | 35.21896 | -80.94194 | 731 ft | 1 kts | 252° |
| 2026-05-06 18:53 | 35.21900 | -80.94179 | 729 ft | 2 kts | 251° |
| 2026-05-06 18:53 | 35.21905 | -80.94163 | 731 ft | 2 kts | 246° |
| 2026-05-06 18:53 | 35.21910 | -80.94151 | 731 ft | 1 kts | 227° |
| 2026-05-06 18:53 | 35.21917 | -80.94145 | 731 ft | 1 kts | 194° |
| 2026-05-06 18:54 | 35.21924 | -80.94143 | 731 ft | 1 kts | 184° |
| 2026-05-06 18:54 | 35.21930 | -80.94143 | 730 ft | 1 kts | 181° |
| 2026-05-06 18:54 | 35.21932 | -80.94143 | 730 ft | 0 kts | 181° |
| 2026-05-06 18:55 | 35.21932 | -80.94142 | 730 ft | 0 kts | 178° |
| 2026-05-06 18:56 | 35.21922 | -80.94139 | 731 ft | 4 kts | 166° |
| 2026-05-06 18:56 | 35.21894 | -80.94128 | 731 ft | 4 kts | 163° |
| 2026-05-06 18:56 | 35.21866 | -80.94118 | 731 ft | 4 kts | 163° |
| 2026-05-06 18:56 | 35.21833 | -80.94106 | 731 ft | 6 kts | 163° |
| 2026-05-06 18:57 | 35.21789 | -80.94090 | 731 ft | 7 kts | 163° |
| 2026-05-06 18:57 | 35.21745 | -80.94074 | 731 ft | 7 kts | 163° |
| 2026-05-06 18:57 | 35.21703 | -80.94083 | 731 ft | 7 kts | 222° |
| 2026-05-06 18:57 | 35.21669 | -80.94130 | 730 ft | 7 kts | 228° |
| 2026-05-06 18:58 | 35.21635 | -80.94176 | 730 ft | 7 kts | 228° |
| 2026-05-06 18:58 | 35.21579 | -80.94253 | 731 ft | 17 kts | 228° |
| 2026-05-06 18:58 | 35.21498 | -80.94364 | 729 ft | 17 kts | 229° |
| 2026-05-06 18:58 | 35.21420 | -80.94473 | 730 ft | 17 kts | 228° |
| 2026-05-06 18:59 | 35.21346 | -80.94579 | 730 ft | 16 kts | 238° |
| 2026-05-06 18:59 | 35.21306 | -80.94702 | 731 ft | 15 kts | 253° |
| 2026-05-06 18:59 | 35.21258 | -80.94815 | 731 ft | 15 kts | 230° |
| 2026-05-06 18:59 | 35.21191 | -80.94907 | 730 ft | 14 kts | 226° |
| 2026-05-06 19:00 | 35.21189 | -80.94976 | 730 ft | 9 kts | 306° |
| 2026-05-06 19:00 | 35.21245 | -80.94989 | 732 ft | 9 kts | 0° |
| 2026-05-06 19:00 | 35.21311 | -80.94995 | 732 ft | 10 kts | 355° |
| 2026-05-06 19:00 | 35.21361 | -80.94998 | 732 ft | 12 kts | 356° |
| 2026-05-06 19:01 | 35.21483 | -80.95010 | 732 ft | 14 kts | 356° |
| 2026-05-06 19:01 | 35.21580 | -80.95018 | 732 ft | 14 kts | 356° |
| 2026-05-06 19:01 | 35.21672 | -80.95026 | 732 ft | 13 kts | 356° |
| 2026-05-06 19:01 | 35.21761 | -80.95034 | 733 ft | 13 kts | 355° |
| 2026-05-06 19:02 | 35.21848 | -80.95041 | 733 ft | 12 kts | 355° |
| 2026-05-06 19:02 | 35.21931 | -80.95048 | 733 ft | 12 kts | 356° |
| 2026-05-06 19:02 | 35.22017 | -80.95056 | 733 ft | 13 kts | 356° |
| 2026-05-06 19:02 | 35.22121 | -80.95065 | 733 ft | 17 kts | 355° |
| 2026-05-06 19:03 | 35.22257 | -80.95076 | 733 ft | 21 kts | 356° |
| 2026-05-06 19:03 | 35.22407 | -80.95090 | 733 ft | 22 kts | 356° |
| 2026-05-06 19:03 | 35.22555 | -80.95103 | 732 ft | 21 kts | 355° |
| 2026-05-06 19:03 | 35.22689 | -80.95114 | 732 ft | 7 kts | 356° |
| 2026-05-06 19:04 | 35.22728 | -80.95139 | 733 ft | 7 kts | 306° |
| 2026-05-06 19:04 | 35.22734 | -80.95168 | 733 ft | 3 kts | 268° |
| 2026-05-06 19:04 | 35.22732 | -80.95190 | 734 ft | 3 kts | 265° |
| 2026-05-06 19:04 | 35.22732 | -80.95192 | 734 ft | 0 kts | 265° |
| 2026-05-06 19:05 | 35.22732 | -80.95194 | 734 ft | 3 kts | 264° |
| 2026-05-06 19:05 | 35.22728 | -80.95250 | 737 ft | 7 kts | 265° |
| 2026-05-06 19:05 | 35.22719 | -80.95307 | 738 ft | 7 kts | 229° |
| 2026-05-06 19:05 | 35.22668 | -80.95313 | 737 ft | 16 kts | 177° |
| 2026-05-06 19:06 | 35.22271 | -80.95279 | 740 ft | 99 kts | 176° |
| 2026-05-06 19:06 | 35.21343 | -80.95195 | 793 ft | 162 kts | 177° |
| 2026-05-06 19:06 | 35.20111 | -80.95071 | 1413 ft | 186 kts | 178° |
| 2026-05-06 19:06 | 35.18804 | -80.95113 | 2266 ft | 189 kts | 200° |
| 2026-05-06 19:07 | 35.17774 | -80.95999 | 3266 ft | 188 kts | 232° |
| 2026-05-06 19:07 | 35.17318 | -80.96984 | 3556 ft | 210 kts | 251° |
| 2026-05-06 19:07 | 35.17193 | -80.99581 | 4347 ft | 244 kts | 271° |
| 2026-05-06 19:07 | 35.17333 | -81.01666 | 5419 ft | 246 kts | 272° |
| 2026-05-06 19:08 | 35.17493 | -81.03733 | 6597 ft | 243 kts | 274° |
| 2026-05-06 19:08 | 35.17650 | -81.05792 | 7639 ft | 243 kts | 274° |
| 2026-05-06 19:08 | 35.17802 | -81.07846 | 8694 ft | 243 kts | 274° |
| 2026-05-06 19:08 | 35.17949 | -81.09912 | 9764 ft | 244 kts | 274° |
| 2026-05-06 19:09 | 35.18094 | -81.12003 | 10550 ft | 254 kts | 274° |
| 2026-05-06 19:09 | 35.18247 | -81.14271 | 10788 ft | 282 kts | 274° |
| 2026-05-06 19:09 | 35.18411 | -81.16737 | 10982 ft | 308 kts | 274° |
| 2026-05-06 19:09 | 35.18592 | -81.19487 | 11161 ft | 333 kts | 274° |
| 2026-05-06 19:10 | 35.18783 | -81.22379 | 11588 ft | 345 kts | 274° |
| 2026-05-06 19:10 | 35.18975 | -81.25311 | 12267 ft | 348 kts | 274° |
| 2026-05-06 19:10 | 35.19166 | -81.28247 | 13003 ft | 350 kts | 273° |
| 2026-05-06 19:10 | 35.19358 | -81.31224 | 13680 ft | 352 kts | 273° |
| 2026-05-06 19:11 | 35.19472 | -81.34220 | 14255 ft | 355 kts | 269° |
| 2026-05-06 19:11 | 35.19424 | -81.36264 | 14646 ft | 357 kts | 268° |
| 2026-05-06 19:11 | 35.19294 | -81.40302 | 15365 ft | 361 kts | 268° |
| 2026-05-06 19:11 | 35.19194 | -81.43387 | 15920 ft | 364 kts | 268° |
| 2026-05-06 19:12 | 35.19101 | -81.46490 | 16457 ft | 367 kts | 269° |
| 2026-05-06 19:12 | 35.19041 | -81.48560 | 16791 ft | 369 kts | 269° |
| 2026-05-06 19:12 | 35.18952 | -81.51709 | 17287 ft | 372 kts | 269° |
| 2026-05-06 19:12 | 35.18823 | -81.55950 | 17996 ft | 375 kts | 269° |
| 2026-05-06 19:13 | 35.18749 | -81.58067 | 18340 ft | 377 kts | 269° |
| 2026-05-06 19:13 | 35.18635 | -81.61276 | 18774 ft | 379 kts | 269° |
| 2026-05-06 19:13 | 35.18523 | -81.64508 | 19190 ft | 382 kts | 269° |
| 2026-05-06 19:13 | 35.18444 | -81.67766 | 19588 ft | 385 kts | 269° |
| 2026-05-06 19:14 | 35.18382 | -81.71045 | 20004 ft | 386 kts | 269° |
| 2026-05-06 19:14 | 35.18323 | -81.74338 | 20400 ft | 389 kts | 269° |
| 2026-05-06 19:14 | 35.18261 | -81.77648 | 20785 ft | 391 kts | 269° |
| 2026-05-06 19:14 | 35.18196 | -81.80990 | 21150 ft | 394 kts | 269° |
| 2026-05-06 19:15 | 35.18128 | -81.84345 | 21517 ft | 396 kts | 269° |
| 2026-05-06 19:15 | 35.18057 | -81.87715 | 21876 ft | 398 kts | 269° |
| 2026-05-06 19:15 | 35.17984 | -81.91067 | 22240 ft | 399 kts | 269° |
| 2026-05-06 19:15 | 35.17909 | -81.94465 | 22622 ft | 400 kts | 269° |
| 2026-05-06 19:16 | 35.17834 | -81.97874 | 22936 ft | 403 kts | 269° |
| 2026-05-06 19:16 | 35.17756 | -82.01316 | 23228 ft | 405 kts | 269° |
| 2026-05-06 19:16 | 35.17677 | -82.04773 | 23527 ft | 407 kts | 269° |
| 2026-05-06 19:16 | 35.17597 | -82.08241 | 23772 ft | 409 kts | 269° |
| 2026-05-06 19:17 | 35.17516 | -82.11733 | 24004 ft | 411 kts | 269° |
| 2026-05-06 19:17 | 35.17434 | -82.15235 | 24239 ft | 413 kts | 269° |
| 2026-05-06 19:17 | 35.17389 | -82.18738 | 24456 ft | 414 kts | 272° |
| 2026-05-06 19:17 | 35.17655 | -82.22263 | 24665 ft | 417 kts | 278° |
| 2026-05-06 19:18 | 35.18293 | -82.25728 | 24867 ft | 420 kts | 284° |
| 2026-05-06 19:18 | 35.19130 | -82.29156 | 25067 ft | 422 kts | 284° |
| 2026-05-06 19:18 | 35.19967 | -82.32608 | 25271 ft | 423 kts | 284° |
| 2026-05-06 19:18 | 35.20798 | -82.36063 | 25499 ft | 424 kts | 284° |
| 2026-05-06 19:19 | 35.21624 | -82.39526 | 25681 ft | 426 kts | 284° |
| 2026-05-06 19:19 | 35.22451 | -82.43019 | 25882 ft | 427 kts | 284° |
| 2026-05-06 19:19 | 35.23274 | -82.46510 | 26072 ft | 428 kts | 284° |
| 2026-05-06 19:19 | 35.24096 | -82.50010 | 26259 ft | 429 kts | 284° |
| 2026-05-06 19:20 | 35.24920 | -82.53525 | 26402 ft | 430 kts | 284° |
| 2026-05-06 19:20 | 35.25746 | -82.57049 | 26549 ft | 431 kts | 284° |
| 2026-05-06 19:20 | 35.26569 | -82.60570 | 26672 ft | 432 kts | 284° |
| 2026-05-06 19:20 | 35.27394 | -82.64103 | 26804 ft | 432 kts | 284° |
| 2026-05-06 19:21 | 35.28218 | -82.67638 | 26997 ft | 432 kts | 284° |
| 2026-05-06 19:21 | 35.29042 | -82.71171 | 27196 ft | 431 kts | 284° |
| 2026-05-06 19:21 | 35.29845 | -82.74622 | 27400 ft | 430 kts | 284° |
| 2026-05-06 19:21 | 35.30680 | -82.78219 | 27596 ft | 430 kts | 283° |
| 2026-05-06 19:22 | 35.31498 | -82.81747 | 27787 ft | 429 kts | 283° |
| 2026-05-06 19:22 | 35.32312 | -82.85260 | 27973 ft | 428 kts | 283° |
| 2026-05-06 19:22 | 35.33111 | -82.88716 | 28152 ft | 428 kts | 283° |
| 2026-05-06 19:22 | 35.33920 | -82.92221 | 28323 ft | 428 kts | 283° |
| 2026-05-06 19:23 | 35.34727 | -82.95718 | 28560 ft | 426 kts | 283° |
| 2026-05-06 19:23 | 35.35532 | -82.99208 | 28804 ft | 426 kts | 283° |
| 2026-05-06 19:23 | 35.36335 | -83.02704 | 29095 ft | 426 kts | 283° |
| 2026-05-06 19:23 | 35.37133 | -83.06188 | 29372 ft | 425 kts | 283° |
| 2026-05-06 19:24 | 35.37933 | -83.09678 | 29691 ft | 424 kts | 283° |
| 2026-05-06 19:24 | 35.38727 | -83.13146 | 30027 ft | 423 kts | 283° |
| 2026-05-06 19:24 | 35.39522 | -83.16624 | 30361 ft | 421 kts | 283° |
| 2026-05-06 19:24 | 35.40308 | -83.20064 | 30732 ft | 419 kts | 283° |
| 2026-05-06 19:25 | 35.41087 | -83.23481 | 31189 ft | 413 kts | 282° |
| 2026-05-06 19:25 | 35.41857 | -83.26863 | 31640 ft | 410 kts | 282° |
| 2026-05-06 19:25 | 35.42619 | -83.30225 | 32014 ft | 409 kts | 282° |
| 2026-05-06 19:25 | 35.43377 | -83.33578 | 32411 ft | 406 kts | 282° |
| 2026-05-06 19:26 | 35.44128 | -83.36907 | 32854 ft | 403 kts | 282° |
| 2026-05-06 19:26 | 35.44870 | -83.40196 | 33327 ft | 399 kts | 282° |
| 2026-05-06 19:26 | 35.45595 | -83.43416 | 33764 ft | 395 kts | 282° |
| 2026-05-06 19:26 | 35.46324 | -83.46649 | 34153 ft | 392 kts | 282° |
| 2026-05-06 19:27 | 35.47044 | -83.49853 | 34549 ft | 389 kts | 282° |
| 2026-05-06 19:27 | 35.47752 | -83.53013 | 34988 ft | 383 kts | 282° |
| 2026-05-06 19:27 | 35.48450 | -83.56123 | 35611 ft | 374 kts | 281° |
| 2026-05-06 19:27 | 35.49134 | -83.59179 | 36007 ft | 369 kts | 281° |
| 2026-05-06 19:28 | 35.49809 | -83.62208 | 36377 ft | 366 kts | 281° |
| 2026-05-06 19:28 | 35.50477 | -83.65204 | 36750 ft | 363 kts | 281° |
| 2026-05-06 19:28 | 35.51122 | -83.68100 | 37175 ft | 358 kts | 281° |
| 2026-05-06 19:28 | 35.51786 | -83.71090 | 37610 ft | 350 kts | 279° |
| 2026-05-06 19:29 | 35.52428 | -83.73978 | 37848 ft | 348 kts | 281° |
| 2026-05-06 19:29 | 35.53686 | -83.79677 | 37952 ft | 342 kts | 281° |
| 2026-05-06 19:30 | 35.54929 | -83.85298 | 37955 ft | 346 kts | 281° |
| 2026-05-06 19:30 | 35.56200 | -83.91055 | 37969 ft | 351 kts | 281° |
| 2026-05-06 19:31 | 35.57484 | -83.96879 | 37966 ft | 353 kts | 281° |
| 2026-05-06 19:31 | 35.59410 | -84.05644 | 37966 ft | 354 kts | 280° |
| 2026-05-06 19:32 | 35.60687 | -84.11480 | 37962 ft | 353 kts | 280° |
| 2026-05-06 19:32 | 35.61955 | -84.17289 | 37974 ft | 352 kts | 280° |
| 2026-05-06 19:33 | 35.63212 | -84.23058 | 37975 ft | 351 kts | 280° |
| 2026-05-06 19:33 | 35.64469 | -84.28847 | 37990 ft | 351 kts | 280° |
| 2026-05-06 19:34 | 35.65723 | -84.34639 | 37989 ft | 350 kts | 280° |
| 2026-05-06 19:34 | 35.66972 | -84.40416 | 37982 ft | 350 kts | 280° |
| 2026-05-06 19:35 | 35.68220 | -84.46205 | 37978 ft | 349 kts | 280° |
| 2026-05-06 19:35 | 35.69461 | -84.51980 | 37964 ft | 349 kts | 280° |
| 2026-05-06 19:36 | 35.70700 | -84.57754 | 37959 ft | 349 kts | 279° |
| 2026-05-06 19:36 | 35.71937 | -84.63540 | 37977 ft | 350 kts | 279° |
| 2026-05-06 19:37 | 35.73166 | -84.69301 | 37976 ft | 350 kts | 279° |
| 2026-05-06 19:37 | 35.74200 | -84.74159 | 37977 ft | 350 kts | 279° |
| 2026-05-06 19:38 | 35.75629 | -84.80887 | 37975 ft | 350 kts | 279° |
| 2026-05-06 19:38 | 35.76858 | -84.86690 | 37965 ft | 349 kts | 279° |
| 2026-05-06 19:39 | 35.78079 | -84.92471 | 37975 ft | 349 kts | 279° |
| 2026-05-06 19:39 | 35.79299 | -84.98262 | 37983 ft | 349 kts | 279° |
| 2026-05-06 19:40 | 35.80517 | -85.04065 | 37990 ft | 351 kts | 279° |
| 2026-05-06 19:40 | 35.81736 | -85.09878 | 38002 ft | 350 kts | 279° |
| 2026-05-06 19:41 | 35.82949 | -85.15685 | 37998 ft | 349 kts | 279° |
| 2026-05-06 19:41 | 35.84154 | -85.21461 | 38003 ft | 348 kts | 279° |
| 2026-05-06 19:42 | 35.85351 | -85.27216 | 37992 ft | 349 kts | 279° |
| 2026-05-06 19:42 | 35.86547 | -85.33001 | 37984 ft | 348 kts | 279° |
| 2026-05-06 19:43 | 35.87739 | -85.38785 | 37980 ft | 347 kts | 279° |
| 2026-05-06 19:43 | 35.88926 | -85.44556 | 38002 ft | 347 kts | 278° |
| 2026-05-06 19:44 | 35.90109 | -85.50325 | 37990 ft | 347 kts | 278° |
| 2026-05-06 19:44 | 35.91288 | -85.56087 | 38006 ft | 346 kts | 278° |
| 2026-05-06 19:45 | 35.92456 | -85.61811 | 37972 ft | 346 kts | 278° |
| 2026-05-06 19:45 | 35.93627 | -85.67565 | 37978 ft | 346 kts | 278° |
| 2026-05-06 19:46 | 35.94794 | -85.73314 | 37972 ft | 345 kts | 278° |
| 2026-05-06 19:46 | 35.95964 | -85.79094 | 37975 ft | 345 kts | 278° |
| 2026-05-06 19:47 | 35.97115 | -85.84796 | 37972 ft | 345 kts | 278° |
| 2026-05-06 19:47 | 35.98273 | -85.90542 | 37983 ft | 344 kts | 278° |
| 2026-05-06 19:48 | 35.99429 | -85.96285 | 37990 ft | 344 kts | 278° |
| 2026-05-06 19:48 | 36.00582 | -86.02025 | 37989 ft | 344 kts | 278° |
| 2026-05-06 19:49 | 36.01728 | -86.07751 | 37980 ft | 343 kts | 278° |
| 2026-05-06 19:49 | 36.02871 | -86.13479 | 37992 ft | 343 kts | 278° |
| 2026-05-06 19:50 | 36.04012 | -86.19210 | 37992 ft | 343 kts | 277° |
| 2026-05-06 19:50 | 36.05150 | -86.24938 | 37989 ft | 343 kts | 277° |
| 2026-05-06 19:51 | 36.06285 | -86.30668 | 38017 ft | 343 kts | 277° |
| 2026-05-06 19:51 | 36.07408 | -86.36351 | 38016 ft | 343 kts | 277° |
| 2026-05-06 19:52 | 36.08540 | -86.42096 | 38022 ft | 343 kts | 277° |
| 2026-05-06 19:52 | 36.09665 | -86.47823 | 38013 ft | 342 kts | 277° |
| 2026-05-06 19:53 | 36.10784 | -86.53536 | 38025 ft | 341 kts | 277° |
| 2026-05-06 19:53 | 36.11899 | -86.59241 | 38041 ft | 341 kts | 277° |
| 2026-05-06 19:54 | 36.13011 | -86.64948 | 38040 ft | 340 kts | 277° |
| 2026-05-06 19:54 | 36.13353 | -86.70675 | 38033 ft | 333 kts | 263° |
| 2026-05-06 19:55 | 36.12527 | -86.76267 | 38035 ft | 333 kts | 259° |
| 2026-05-06 19:55 | 36.11602 | -86.81883 | 38015 ft | 333 kts | 259° |
| 2026-05-06 19:56 | 36.10689 | -86.87494 | 38009 ft | 333 kts | 259° |
| 2026-05-06 19:56 | 36.09784 | -86.93109 | 38012 ft | 333 kts | 259° |
| 2026-05-06 19:57 | 36.08884 | -86.98713 | 38017 ft | 333 kts | 259° |
| 2026-05-06 19:57 | 36.08131 | -87.03398 | 38006 ft | 333 kts | 259° |
| 2026-05-06 19:58 | 36.07223 | -87.09035 | 38014 ft | 333 kts | 259° |
| 2026-05-06 19:58 | 36.06315 | -87.14651 | 38018 ft | 333 kts | 259° |
| 2026-05-06 19:59 | 36.05405 | -87.20271 | 38020 ft | 333 kts | 259° |
| 2026-05-06 19:59 | 36.04491 | -87.25895 | 38026 ft | 334 kts | 259° |
| 2026-05-06 20:00 | 36.03574 | -87.31519 | 38027 ft | 334 kts | 259° |
| 2026-05-06 20:00 | 36.02655 | -87.37137 | 38023 ft | 334 kts | 259° |
| 2026-05-06 20:01 | 36.01733 | -87.42755 | 38024 ft | 334 kts | 259° |
| 2026-05-06 20:01 | 36.00809 | -87.48373 | 37914 ft | 334 kts | 259° |
| 2026-05-06 20:02 | 36.00347 | -87.51173 | 37607 ft | 330 kts | 259° |
| 2026-05-06 20:02 | 35.99890 | -87.53936 | 37346 ft | 327 kts | 259° |
| 2026-05-06 20:02 | 35.99432 | -87.56704 | 37093 ft | 331 kts | 259° |
| 2026-05-06 20:02 | 35.98969 | -87.59502 | 36853 ft | 334 kts | 259° |
| 2026-05-06 20:03 | 35.98502 | -87.62323 | 36597 ft | 336 kts | 259° |
| 2026-05-06 20:03 | 35.98032 | -87.65153 | 36347 ft | 337 kts | 258° |
| 2026-05-06 20:03 | 35.97564 | -87.67960 | 36102 ft | 338 kts | 258° |
| 2026-05-06 20:03 | 35.97080 | -87.70846 | 35857 ft | 339 kts | 258° |
| 2026-05-06 20:04 | 35.96597 | -87.73658 | 35612 ft | 340 kts | 258° |
| 2026-05-06 20:04 | 35.96101 | -87.76525 | 35365 ft | 341 kts | 258° |
| 2026-05-06 20:04 | 35.95604 | -87.79392 | 35150 ft | 342 kts | 258° |
| 2026-05-06 20:04 | 35.95106 | -87.82265 | 34908 ft | 343 kts | 257° |
| 2026-05-06 20:05 | 35.94605 | -87.85150 | 34673 ft | 344 kts | 257° |
| 2026-05-06 20:05 | 35.94103 | -87.88041 | 34439 ft | 345 kts | 257° |
| 2026-05-06 20:05 | 35.93600 | -87.90939 | 34217 ft | 346 kts | 257° |
| 2026-05-06 20:05 | 35.93093 | -87.93850 | 33987 ft | 347 kts | 257° |
| 2026-05-06 20:06 | 35.92584 | -87.96776 | 33725 ft | 349 kts | 257° |
| 2026-05-06 20:06 | 35.92072 | -87.99711 | 33469 ft | 351 kts | 257° |
| 2026-05-06 20:06 | 35.91556 | -88.02666 | 33210 ft | 353 kts | 257° |
| 2026-05-06 20:06 | 35.91035 | -88.05642 | 32963 ft | 356 kts | 257° |
| 2026-05-06 20:07 | 35.90511 | -88.08636 | 32710 ft | 358 kts | 257° |
| 2026-05-06 20:07 | 35.89982 | -88.11650 | 32464 ft | 361 kts | 256° |
| 2026-05-06 20:07 | 35.89452 | -88.14666 | 32217 ft | 363 kts | 256° |
| 2026-05-06 20:07 | 35.88911 | -88.17738 | 31972 ft | 365 kts | 256° |
| 2026-05-06 20:08 | 35.88368 | -88.20819 | 31730 ft | 368 kts | 256° |
| 2026-05-06 20:08 | 35.87824 | -88.23908 | 31487 ft | 370 kts | 256° |
| 2026-05-06 20:08 | 35.87282 | -88.26972 | 31247 ft | 371 kts | 256° |
| 2026-05-06 20:08 | 35.86729 | -88.30092 | 31016 ft | 373 kts | 256° |
| 2026-05-06 20:09 | 35.86176 | -88.33223 | 30785 ft | 375 kts | 256° |
| 2026-05-06 20:09 | 35.85622 | -88.36381 | 30544 ft | 377 kts | 256° |
| 2026-05-06 20:09 | 35.85078 | -88.39492 | 30319 ft | 379 kts | 256° |
| 2026-05-06 20:09 | 35.84521 | -88.42682 | 30086 ft | 382 kts | 256° |
| 2026-05-06 20:10 | 35.83959 | -88.45888 | 29810 ft | 383 kts | 256° |
| 2026-05-06 20:10 | 35.83394 | -88.49102 | 29544 ft | 385 kts | 256° |
| 2026-05-06 20:10 | 35.82825 | -88.52340 | 29279 ft | 387 kts | 256° |
| 2026-05-06 20:10 | 35.82255 | -88.55573 | 29009 ft | 388 kts | 256° |
| 2026-05-06 20:11 | 35.81680 | -88.58833 | 28742 ft | 388 kts | 256° |
| 2026-05-06 20:11 | 35.81104 | -88.62089 | 28483 ft | 389 kts | 256° |
| 2026-05-06 20:11 | 35.80527 | -88.65348 | 28222 ft | 389 kts | 256° |
| 2026-05-06 20:11 | 35.79948 | -88.68610 | 27972 ft | 390 kts | 256° |
| 2026-05-06 20:12 | 35.79368 | -88.71873 | 27716 ft | 390 kts | 256° |
| 2026-05-06 20:12 | 35.78787 | -88.75140 | 27471 ft | 391 kts | 256° |
| 2026-05-06 20:12 | 35.78202 | -88.78417 | 27214 ft | 392 kts | 256° |
| 2026-05-06 20:12 | 35.77617 | -88.81693 | 26967 ft | 393 kts | 256° |
| 2026-05-06 20:13 | 35.77028 | -88.84990 | 26721 ft | 394 kts | 256° |
| 2026-05-06 20:13 | 35.76438 | -88.88280 | 26470 ft | 395 kts | 256° |
| 2026-05-06 20:13 | 35.75842 | -88.91604 | 25797 ft | 395 kts | 256° |
| 2026-05-06 20:13 | 35.75257 | -88.94863 | 25164 ft | 383 kts | 256° |
| 2026-05-06 20:14 | 35.74691 | -88.98012 | 24561 ft | 374 kts | 256° |
| 2026-05-06 20:14 | 35.74132 | -89.01114 | 23973 ft | 367 kts | 256° |
| 2026-05-06 20:14 | 35.73559 | -89.04152 | 23337 ft | 364 kts | 253° |
| 2026-05-06 20:14 | 35.72580 | -89.07025 | 22675 ft | 363 kts | 243° |
| 2026-05-06 20:15 | 35.71156 | -89.09585 | 21994 ft | 364 kts | 233° |
| 2026-05-06 20:15 | 35.69427 | -89.11846 | 21420 ft | 362 kts | 231° |
| 2026-05-06 20:15 | 35.67694 | -89.14036 | 20865 ft | 359 kts | 231° |
| 2026-05-06 20:15 | 35.65946 | -89.16249 | 20310 ft | 355 kts | 231° |
| 2026-05-06 20:16 | 35.64238 | -89.18435 | 19732 ft | 353 kts | 231° |
| 2026-05-06 20:16 | 35.62547 | -89.20612 | 19193 ft | 351 kts | 231° |
| 2026-05-06 20:16 | 35.60888 | -89.22750 | 19072 ft | 341 kts | 231° |
| 2026-05-06 20:16 | 35.59232 | -89.24888 | 18629 ft | 350 kts | 231° |
| 2026-05-06 20:17 | 35.57575 | -89.27017 | 18110 ft | 347 kts | 231° |
| 2026-05-06 20:17 | 35.55916 | -89.29143 | 17579 ft | 342 kts | 231° |
| 2026-05-06 20:17 | 35.54284 | -89.31232 | 17014 ft | 339 kts | 230° |
| 2026-05-06 20:17 | 35.52660 | -89.33313 | 16443 ft | 338 kts | 230° |
| 2026-05-06 20:18 | 35.51034 | -89.35394 | 15941 ft | 335 kts | 229° |
| 2026-05-06 20:18 | 35.49435 | -89.37441 | 15628 ft | 332 kts | 229° |
| 2026-05-06 20:18 | 35.47827 | -89.39503 | 15301 ft | 336 kts | 229° |
| 2026-05-06 20:18 | 35.46201 | -89.41586 | 14968 ft | 337 kts | 229° |
| 2026-05-06 20:19 | 35.44584 | -89.43656 | 14641 ft | 335 kts | 228° |
| 2026-05-06 20:19 | 35.42975 | -89.45713 | 14322 ft | 334 kts | 228° |
| 2026-05-06 20:19 | 35.41368 | -89.47769 | 13999 ft | 334 kts | 227° |
| 2026-05-06 20:19 | 35.39757 | -89.49827 | 13649 ft | 334 kts | 227° |
| 2026-05-06 20:20 | 35.38149 | -89.51880 | 13294 ft | 334 kts | 227° |
| 2026-05-06 20:20 | 35.36540 | -89.53934 | 12963 ft | 335 kts | 228° |
| 2026-05-06 20:20 | 35.34923 | -89.55996 | 12628 ft | 335 kts | 228° |
| 2026-05-06 20:20 | 35.33303 | -89.58060 | 12300 ft | 336 kts | 228° |
| 2026-05-06 20:21 | 35.31715 | -89.60081 | 11979 ft | 326 kts | 228° |
| 2026-05-06 20:21 | 35.30179 | -89.62035 | 11661 ft | 312 kts | 228° |
| 2026-05-06 20:21 | 35.28698 | -89.63917 | 11380 ft | 299 kts | 229° |
| 2026-05-06 20:21 | 35.27298 | -89.65693 | 11100 ft | 282 kts | 229° |
| 2026-05-06 20:22 | 35.25961 | -89.67393 | 10837 ft | 275 kts | 229° |
| 2026-05-06 20:22 | 35.24646 | -89.69064 | 10580 ft | 270 kts | 229° |
| 2026-05-06 20:22 | 35.23356 | -89.70703 | 10322 ft | 266 kts | 229° |
| 2026-05-06 20:22 | 35.22083 | -89.72320 | 10075 ft | 261 kts | 229° |
| 2026-05-06 20:23 | 35.20832 | -89.73907 | 9812 ft | 258 kts | 229° |
| 2026-05-06 20:23 | 35.19596 | -89.75475 | 9538 ft | 254 kts | 229° |
| 2026-05-06 20:23 | 35.18381 | -89.77013 | 9282 ft | 250 kts | 230° |
| 2026-05-06 20:23 | 35.17175 | -89.78540 | 9047 ft | 249 kts | 230° |
| 2026-05-06 20:24 | 35.15974 | -89.80062 | 8836 ft | 248 kts | 230° |
| 2026-05-06 20:24 | 35.14785 | -89.81567 | 8839 ft | 242 kts | 230° |
| 2026-05-06 20:24 | 35.13613 | -89.83048 | 8846 ft | 245 kts | 230° |
| 2026-05-06 20:24 | 35.12409 | -89.84573 | 8860 ft | 251 kts | 230° |
| 2026-05-06 20:25 | 35.11061 | -89.85955 | 8843 ft | 257 kts | 212° |
| 2026-05-06 20:25 | 35.09356 | -89.86616 | 8854 ft | 260 kts | 192° |
| 2026-05-06 20:25 | 35.07571 | -89.86688 | 8795 ft | 254 kts | 185° |
| 2026-05-06 20:25 | 35.05864 | -89.86633 | 8688 ft | 242 kts | 185° |
| 2026-05-06 20:26 | 35.04234 | -89.86581 | 8608 ft | 225 kts | 186° |
| 2026-05-06 20:26 | 35.02719 | -89.86542 | 8302 ft | 216 kts | 186° |
| 2026-05-06 20:26 | 35.01202 | -89.86479 | 7865 ft | 211 kts | 185° |
| 2026-05-06 20:26 | 34.99809 | -89.86430 | 7609 ft | 192 kts | 188° |
| 2026-05-06 20:27 | 34.98413 | -89.86427 | 6738 ft | 209 kts | 188° |
| 2026-05-06 20:27 | 34.96918 | -89.86429 | 5877 ft | 219 kts | 187° |
| 2026-05-06 20:27 | 34.95407 | -89.86419 | 5485 ft | 205 kts | 186° |
| 2026-05-06 20:27 | 34.94046 | -89.86399 | 5329 ft | 186 kts | 187° |
| 2026-05-06 20:28 | 34.92811 | -89.86382 | 5158 ft | 169 kts | 187° |
| 2026-05-06 20:28 | 34.91657 | -89.86370 | 4993 ft | 164 kts | 188° |
| 2026-05-06 20:28 | 34.90512 | -89.86361 | 4871 ft | 166 kts | 188° |
| 2026-05-06 20:28 | 34.89356 | -89.86352 | 4704 ft | 169 kts | 187° |
| 2026-05-06 20:29 | 34.88174 | -89.86342 | 4541 ft | 171 kts | 186° |
| 2026-05-06 20:29 | 34.86985 | -89.86328 | 4350 ft | 169 kts | 186° |
| 2026-05-06 20:29 | 34.85856 | -89.86486 | 4148 ft | 158 kts | 213° |
| 2026-05-06 20:29 | 34.85200 | -89.87413 | 4035 ft | 145 kts | 260° |
| 2026-05-06 20:30 | 34.85117 | -89.88655 | 3943 ft | 151 kts | 268° |
| 2026-05-06 20:30 | 34.84977 | -89.91265 | 3247 ft | 153 kts | 268° |
| 2026-05-06 20:30 | 34.84891 | -89.92552 | 2852 ft | 153 kts | 269° |
| 2026-05-06 20:31 | 34.84781 | -89.93844 | 2456 ft | 155 kts | 268° |
| 2026-05-06 20:31 | 34.84731 | -89.95168 | 2077 ft | 159 kts | 285° |
| 2026-05-06 20:31 | 34.85331 | -89.96193 | 2032 ft | 151 kts | 329° |
| 2026-05-06 20:31 | 34.86194 | -89.96928 | 2000 ft | 149 kts | 328° |
| 2026-05-06 20:32 | 34.86477 | -89.97178 | 2000 ft | 148 kts | 328° |